Curranville, Kansas
Current Conditions -  °F | °C
As of 5:55 PM on Saturday 25 Oct 2014 (Local Time) from KPTS Reporting Station
Clear Clear  
Wind Chill: 80°   Ceiling: Unl
Heat Index: 83°   Visibility: 10mi
Dew Point: 68°   Wind: 5mph
Humidity: 65%   Direction: 200°SSW
Pressure: 30.02"   Gusts: NA
Location:  37.5542°N, 94.6826°W
Report Text: KPTS 252255Z AUTO 20004KT 10SM CLR 27/20 A3002 RMK AO2 T02680198
Loading
Personal Weather Stations






























Interactive Weather Map
Tropical Storm Tracking
New forecast layout! Learn more

10-Day Weather Forecast

Advertisements
Track Severe Weather on mobile